Marshalltown, Iowa
Current Conditions -  °F | °C
As of 9:53 PM on Sunday 23 Nov 2014 (Local Time) from KMIW Reporting Station
Moderate Rain Moderate Rain  
Wind Chill: -4°   Ceiling: 1400
Heat Index:   Visibility: 5mi
Dew Point:   Wind: 22mph
Humidity: 93%   Direction: 310°NW
Pressure: 29.34"   Gusts: NA
Location:  42.05°N, 92.91°W
Report Text: KMIW 240353Z AUTO 31019KT 5SM RA BR FEW009 BKN014 OVC020 02/01 A2934 RMK AO2 PK WND 32030/0255 SLP938 P0009 T00220011
Loading
Personal Weather Stations






























Interactive Weather Map New forecast layout! Learn more

10-Day Weather Forecast

Advertisements
Track Severe Weather on mobile